sensor_id;sensor_type;location;lat;lon;timestamp;P1;durP1;ratioP1;P2;durP2;ratioP2
2784;SDS011;57944;48.722;9.316;2023-05-10T17:04:43;10.80;;;3.10;;
2784;SDS011;57944;48.722;9.316;2023-05-10T17:09:00;4.03;;;2.07;;
2784;SDS011;57944;48.722;9.316;2023-05-10T17:11:31;5.20;;;2.20;;
2784;SDS011;57944;48.722;9.316;2023-05-10T17:14:01;11.20;;;2.43;;
2784;SDS011;57944;48.722;9.316;2023-05-10T17:16:31;5.10;;;2.90;;
2784;SDS011;57944;48.722;9.316;2023-05-10T17:19:02;7.03;;;2.50;;
2784;SDS011;57944;48.722;9.316;2023-05-10T17:21:32;4.83;;;2.43;;
2784;SDS011;57944;48.722;9.316;2023-05-10T17:24:06;5.37;;;3.57;;
2784;SDS011;57944;48.722;9.316;2023-05-10T17:26:36;6.50;;;3.13;;
2784;SDS011;57944;48.722;9.316;2023-05-10T17:29:07;5.50;;;2.30;;
2784;SDS011;57944;48.722;9.316;2023-05-10T17:31:39;5.50;;;3.43;;
2784;SDS011;57944;48.722;9.316;2023-05-10T17:34:09;11.20;;;2.40;;
2784;SDS011;57944;48.722;9.316;2023-05-10T17:36:39;4.77;;;2.30;;
2784;SDS011;57944;48.722;9.316;2023-05-10T17:39:12;12.50;;;2.40;;
2784;SDS011;57944;48.722;9.316;2023-05-10T17:41:43;4.30;;;1.83;;
2784;SDS011;57944;48.722;9.316;2023-05-10T17:44:13;4.97;;;2.80;;
2784;SDS011;57944;48.722;9.316;2023-05-10T17:46:44;6.37;;;2.77;;
2784;SDS011;57944;48.722;9.316;2023-05-10T17:49:14;6.23;;;3.10;;
2784;SDS011;57944;48.722;9.316;2023-05-10T17:51:44;8.00;;;2.90;;
2784;SDS011;57944;48.722;9.316;2023-05-10T17:54:18;9.60;;;3.90;;
2784;SDS011;57944;48.722;9.316;2023-05-10T17:56:48;3.60;;;2.50;;
2784;SDS011;57944;48.722;9.316;2023-05-10T17:59:18;7.20;;;2.80;;
2784;SDS011;57944;48.722;9.316;2023-05-10T18:01:49;4.60;;;2.57;;
2784;SDS011;57944;48.722;9.316;2023-05-10T18:04:19;4.80;;;2.50;;
2784;SDS011;57944;48.722;9.316;2023-05-10T18:06:49;4.17;;;2.10;;
2784;SDS011;57944;48.722;9.316;2023-05-10T18:09:29;9.50;;;2.67;;
2784;SDS011;57944;48.722;9.316;2023-05-10T18:12:00;8.03;;;2.20;;
2784;SDS011;57944;48.722;9.316;2023-05-10T18:14:31;7.53;;;3.03;;
2784;SDS011;57944;48.722;9.316;2023-05-10T18:17:07;3.33;;;1.93;;
2784;SDS011;57944;48.722;9.316;2023-05-10T18:19:38;3.80;;;2.70;;
2784;SDS011;57944;48.722;9.316;2023-05-10T18:22:08;4.47;;;2.40;;
2784;SDS011;57944;48.722;9.316;2023-05-10T18:24:41;3.87;;;2.10;;
2784;SDS011;57944;48.722;9.316;2023-05-10T18:27:12;4.07;;;2.30;;
2784;SDS011;57944;48.722;9.316;2023-05-10T18:29:42;5.67;;;3.20;;
2784;SDS011;57944;48.722;9.316;2023-05-10T18:32:13;3.33;;;2.53;;
2784;SDS011;57944;48.722;9.316;2023-05-10T18:34:43;6.70;;;3.00;;
2784;SDS011;57944;48.722;9.316;2023-05-10T18:37:14;5.70;;;3.03;;
2784;SDS011;57944;48.722;9.316;2023-05-10T18:39:47;8.70;;;4.67;;
2784;SDS011;57944;48.722;9.316;2023-05-10T18:42:18;5.20;;;2.87;;
2784;SDS011;57944;48.722;9.316;2023-05-10T18:44:48;4.03;;;2.90;;
2784;SDS011;57944;48.722;9.316;2023-05-10T18:47:18;5.37;;;3.47;;
2784;SDS011;57944;48.722;9.316;2023-05-10T18:49:49;9.07;;;3.37;;
2784;SDS011;57944;48.722;9.316;2023-05-10T18:52:19;9.17;;;3.47;;
2784;SDS011;57944;48.722;9.316;2023-05-10T18:54:52;5.60;;;3.30;;
2784;SDS011;57944;48.722;9.316;2023-05-10T18:57:22;5.97;;;2.97;;
2784;SDS011;57944;48.722;9.316;2023-05-10T18:59:52;4.90;;;2.87;;
2784;SDS011;57944;48.722;9.316;2023-05-10T19:02:22;5.03;;;3.33;;
2784;SDS011;57944;48.722;9.316;2023-05-10T19:04:53;3.70;;;2.70;;
2784;SDS011;57944;48.722;9.316;2023-05-10T19:07:25;4.10;;;3.17;;
2784;SDS011;57944;48.722;9.316;2023-05-10T19:09:57;7.90;;;3.30;;
2784;SDS011;57944;48.722;9.316;2023-05-10T19:12:29;5.60;;;2.73;;
2784;SDS011;57944;48.722;9.316;2023-05-10T19:14:59;6.17;;;3.80;;
2784;SDS011;57944;48.722;9.316;2023-05-10T19:17:29;7.37;;;3.87;;
2784;SDS011;57944;48.722;9.316;2023-05-10T19:20:01;10.47;;;4.97;;
2784;SDS011;57944;48.722;9.316;2023-05-10T19:22:31;5.20;;;4.20;;
2784;SDS011;57944;48.722;9.316;2023-05-10T19:25:25;8.40;;;3.80;;
2784;SDS011;57944;48.722;9.316;2023-05-10T19:27:57;6.43;;;4.10;;
2784;SDS011;57944;48.722;9.316;2023-05-10T19:30:27;6.20;;;3.50;;
2784;SDS011;57944;48.722;9.316;2023-05-10T19:32:58;7.50;;;4.53;;
2784;SDS011;57944;48.722;9.316;2023-05-10T19:35:29;6.60;;;3.73;;
2784;SDS011;57944;48.722;9.316;2023-05-10T19:37:59;5.20;;;3.40;;
2784;SDS011;57944;48.722;9.316;2023-05-10T19:40:32;7.47;;;4.10;;
2784;SDS011;57944;48.722;9.316;2023-05-10T19:43:03;7.63;;;3.70;;
2784;SDS011;57944;48.722;9.316;2023-05-10T19:45:33;4.70;;;3.50;;
2784;SDS011;57944;48.722;9.316;2023-05-10T19:48:04;8.33;;;3.40;;
2784;SDS011;57944;48.722;9.316;2023-05-10T19:50:36;4.90;;;2.97;;
2784;SDS011;57944;48.722;9.316;2023-05-10T19:53:06;4.93;;;3.40;;
2784;SDS011;57944;48.722;9.316;2023-05-10T19:55:39;6.50;;;4.77;;
2784;SDS011;57944;48.722;9.316;2023-05-10T19:58:09;12.60;;;6.20;;
2784;SDS011;57944;48.722;9.316;2023-05-10T20:00:39;8.40;;;4.60;;
2784;SDS011;57944;48.722;9.316;2023-05-10T20:03:09;6.20;;;3.73;;
2784;SDS011;57944;48.722;9.316;2023-05-10T20:05:39;6.77;;;4.07;;
2784;SDS011;57944;48.722;9.316;2023-05-10T20:08:10;5.50;;;3.47;;
2784;SDS011;57944;48.722;9.316;2023-05-10T20:10:42;6.47;;;3.83;;
2784;SDS011;57944;48.722;9.316;2023-05-10T20:13:13;5.57;;;3.73;;
2784;SDS011;57944;48.722;9.316;2023-05-10T20:15:44;8.10;;;3.50;;
2784;SDS011;57944;48.722;9.316;2023-05-10T20:18:14;6.23;;;4.23;;
2784;SDS011;57944;48.722;9.316;2023-05-10T20:20:44;4.77;;;3.10;;
2784;SDS011;57944;48.722;9.316;2023-05-10T20:23:14;5.60;;;4.10;;
2784;SDS011;57944;48.722;9.316;2023-05-10T20:25:48;7.00;;;3.27;;
2784;SDS011;57944;48.722;9.316;2023-05-10T20:28:19;15.13;;;4.50;;
2784;SDS011;57944;48.722;9.316;2023-05-10T20:30:52;11.13;;;6.10;;
2784;SDS011;57944;48.722;9.316;2023-05-10T20:33:24;11.10;;;4.53;;
2784;SDS011;57944;48.722;9.316;2023-05-10T20:35:54;5.90;;;3.80;;
2784;SDS011;57944;48.722;9.316;2023-05-10T20:38:24;6.97;;;3.27;;
2784;SDS011;57944;48.722;9.316;2023-05-10T20:40:57;5.17;;;3.23;;
2784;SDS011;57944;48.722;9.316;2023-05-10T20:43:27;6.67;;;3.63;;
2784;SDS011;57944;48.722;9.316;2023-05-10T20:45:57;5.37;;;3.57;;
2784;SDS011;57944;48.722;9.316;2023-05-10T20:48:31;6.73;;;4.03;;
2784;SDS011;57944;48.722;9.316;2023-05-10T20:51:01;6.23;;;3.70;;
2784;SDS011;57944;48.722;9.316;2023-05-10T20:53:31;5.80;;;3.90;;
2784;SDS011;57944;48.722;9.316;2023-05-10T20:56:05;6.53;;;4.00;;
2784;SDS011;57944;48.722;9.316;2023-05-10T20:58:35;6.30;;;3.57;;
2784;SDS011;57944;48.722;9.316;2023-05-10T21:01:05;8.80;;;2.70;;
2784;SDS011;57944;48.722;9.316;2023-05-10T21:03:35;7.50;;;2.50;;
2784;SDS011;57944;48.722;9.316;2023-05-10T21:06:05;5.73;;;2.63;;
2784;SDS011;57944;48.722;9.316;2023-05-10T21:08:35;6.23;;;2.30;;
2784;SDS011;57944;48.722;9.316;2023-05-10T21:11:08;4.43;;;2.20;;
2784;SDS011;57944;48.722;9.316;2023-05-10T21:13:38;2.93;;;2.03;;
2784;SDS011;57944;48.722;9.316;2023-05-10T21:16:09;4.50;;;2.40;;
2784;SDS011;57944;48.722;9.316;2023-05-10T21:18:39;5.60;;;2.13;;
2784;SDS011;57944;48.722;9.316;2023-05-10T21:21:09;3.27;;;2.17;;
2784;SDS011;57944;48.722;9.316;2023-05-10T21:23:39;3.77;;;2.50;;
2784;SDS011;57944;48.722;9.316;2023-05-10T21:26:12;6.73;;;2.13;;
2784;SDS011;57944;48.722;9.316;2023-05-10T21:28:43;3.00;;;1.67;;
2784;SDS011;57944;48.722;9.316;2023-05-10T21:31:13;5.20;;;2.30;;
2784;SDS011;57944;48.722;9.316;2023-05-10T21:33:44;4.10;;;2.20;;
2784;SDS011;57944;48.722;9.316;2023-05-10T21:36:14;4.23;;;2.20;;
2784;SDS011;57944;48.722;9.316;2023-05-10T21:38:44;4.23;;;2.20;;
2784;SDS011;57944;48.722;9.316;2023-05-10T21:41:18;3.50;;;1.90;;
2784;SDS011;57944;48.722;9.316;2023-05-10T21:43:48;10.07;;;2.60;;
2784;SDS011;57944;48.722;9.316;2023-05-10T21:46:18;3.33;;;1.93;;
2784;SDS011;57944;48.722;9.316;2023-05-10T21:48:49;4.23;;;2.00;;
2784;SDS011;57944;48.722;9.316;2023-05-10T21:51:19;6.87;;;2.60;;
2784;SDS011;57944;48.722;9.316;2023-05-10T21:53:49;6.70;;;2.00;;
2784;SDS011;57944;48.722;9.316;2023-05-10T21:56:22;5.93;;;2.47;;
2784;SDS011;57944;48.722;9.316;2023-05-10T21:58:52;4.70;;;1.80;;
2784;SDS011;57944;48.722;9.316;2023-05-10T22:01:22;5.03;;;1.93;;
2784;SDS011;57944;48.722;9.316;2023-05-10T22:03:53;5.67;;;2.00;;
2784;SDS011;57944;48.722;9.316;2023-05-10T22:06:23;3.73;;;2.10;;
2784;SDS011;57944;48.722;9.316;2023-05-10T22:08:53;2.83;;;1.70;;
2784;SDS011;57944;48.722;9.316;2023-05-10T22:15:06;3.97;;;2.57;;
2784;SDS011;57944;48.722;9.316;2023-05-10T22:17:38;4.40;;;1.80;;
2784;SDS011;57944;48.722;9.316;2023-05-10T22:20:09;4.40;;;1.90;;
2784;SDS011;57944;48.722;9.316;2023-05-10T22:22:39;4.63;;;1.83;;
2784;SDS011;57944;48.722;9.316;2023-05-10T22:25:10;3.23;;;1.60;;
2784;SDS011;57944;48.722;9.316;2023-05-10T22:27:40;4.20;;;1.93;;
2784;SDS011;57944;48.722;9.316;2023-05-10T22:30:13;2.93;;;2.03;;
2784;SDS011;57944;48.722;9.316;2023-05-10T22:32:45;3.50;;;2.20;;
2784;SDS011;57944;48.722;9.316;2023-05-10T22:35:15;3.13;;;1.80;;
2784;SDS011;57944;48.722;9.316;2023-05-10T22:37:46;3.80;;;2.03;;
2784;SDS011;57944;48.722;9.316;2023-05-10T22:40:16;3.03;;;1.80;;
2784;SDS011;57944;48.722;9.316;2023-05-10T22:42:47;3.37;;;2.03;;
2784;SDS011;57944;48.722;9.316;2023-05-10T22:45:20;2.77;;;1.97;;
2784;SDS011;57944;48.722;9.316;2023-05-10T22:47:50;2.97;;;2.00;;
2784;SDS011;57944;48.722;9.316;2023-05-10T22:50:20;3.80;;;2.70;;
2784;SDS011;57944;48.722;9.316;2023-05-10T22:52:50;4.33;;;2.40;;
2784;SDS011;57944;48.722;9.316;2023-05-10T22:55:21;4.00;;;2.27;;
2784;SDS011;57944;48.722;9.316;2023-05-10T22:57:51;3.50;;;2.40;;
2784;SDS011;57944;48.722;9.316;2023-05-10T23:00:24;3.80;;;2.07;;
2784;SDS011;57944;48.722;9.316;2023-05-10T23:02:55;3.43;;;2.20;;
2784;SDS011;57944;48.722;9.316;2023-05-10T23:05:25;3.43;;;2.20;;
2784;SDS011;57944;48.722;9.316;2023-05-10T23:07:56;3.70;;;2.20;;
2784;SDS011;57944;48.722;9.316;2023-05-10T23:10:26;3.77;;;2.00;;
2784;SDS011;57944;48.722;9.316;2023-05-10T23:12:57;5.13;;;2.00;;
2784;SDS011;57944;48.722;9.316;2023-05-10T23:15:29;3.47;;;1.93;;
2784;SDS011;57944;48.722;9.316;2023-05-10T23:18:01;3.43;;;2.00;;
2784;SDS011;57944;48.722;9.316;2023-05-10T23:20:32;7.20;;;2.00;;
2784;SDS011;57944;48.722;9.316;2023-05-10T23:23:02;3.00;;;1.73;;
2784;SDS011;57944;48.722;9.316;2023-05-10T23:25:33;2.70;;;1.50;;
2784;SDS011;57944;48.722;9.316;2023-05-10T23:28:04;3.00;;;1.70;;
2784;SDS011;57944;48.722;9.316;2023-05-10T23:30:37;2.80;;;1.83;;
2784;SDS011;57944;48.722;9.316;2023-05-10T23:33:07;3.37;;;2.17;;
2784;SDS011;57944;48.722;9.316;2023-05-10T23:35:39;4.23;;;2.10;;
2784;SDS011;57944;48.722;9.316;2023-05-10T23:38:10;7.13;;;2.47;;
2784;SDS011;57944;48.722;9.316;2023-05-10T23:40:40;4.27;;;2.27;;
2784;SDS011;57944;48.722;9.316;2023-05-10T23:43:11;6.33;;;3.83;;
2784;SDS011;57944;48.722;9.316;2023-05-10T23:45:50;4.43;;;2.73;;
2784;SDS011;57944;48.722;9.316;2023-05-10T23:48:22;4.07;;;2.03;;
2784;SDS011;57944;48.722;9.316;2023-05-10T23:50:53;3.00;;;2.13;;
2784;SDS011;57944;48.722;9.316;2023-05-10T23:53:23;4.70;;;2.60;;
2784;SDS011;57944;48.722;9.316;2023-05-10T23:55:53;3.70;;;2.37;;
2784;SDS011;57944;48.722;9.316;2023-05-10T23:58:24;6.93;;;2.57;;
